»·PEaware :: DAL1411 KSLC-KBOI

DAL1411 :: KSLC-KBOI

FLIGHT INFORMATION

Flight Status: Arrived
Operator:
Delta Air Lines
More flights by this operator :: More flights under this callsign
Pilot: Joe P. (13940)
Aircraft: BOEING 737-700
(B737)
More flights by this aircraft type
Origin: KSLC Salt Lake City Intl
United States
Destination: KBOI Boise Air Terminal/Gowen
United States
More flights between these airports :: More routes between these airports
Route: CGULL1 TWF BROPH SPUUD3
File this flight plan on PilotEdge
Remarks: KTWF -PBN / A1B1C1D1L1O1S1 NAV / RNVD1E2A1 DOF / 180811 REG / N389DA RVR / 200 PER / C
Altitude:
(Current/Filed)
320ft
Speed:
(Current/Filed)
465kts
Departed: 11-Aug-18 06:54 AM
Arrived: 11-Aug-18 07:42 AM
Distance/Time
Traveled:
252nm/0:47
Distance/Time
To Go:
Arrived

Flight Plot

Page will automatically refresh every two minutes.

Flight plan parsing failed; only flown route is shown


Map Options




Map Legend


Flown Route
Filed Route
Departure Airport
Arrival Airport
Navaid (VOR, NDB)
Fix

Horizontal Profiles

Position Reports

Time Latitude Longitude Heading Altitude Ground
Speed
11-Aug-18 05:39 40.789075 -111.985536 130 4235ft 0kts
11-Aug-18 05:40 40.789075 -111.985536 130 4235ft 0kts
11-Aug-18 05:41 40.789075 -111.985536 130 4235ft 0kts
11-Aug-18 05:42 40.789075 -111.985536 130 4235ft 0kts
11-Aug-18 05:43 40.789075 -111.985536 130 4235ft 0kts
11-Aug-18 05:44 40.789075 -111.985536 130 4235ft 0kts
11-Aug-18 05:45 40.789075 -111.985536 130 4235ft 0kts
11-Aug-18 05:46 40.789075 -111.985536 130 4235ft 0kts
11-Aug-18 05:47 40.789075 -111.985536 130 4235ft 0kts
11-Aug-18 05:48 40.789075 -111.985536 130 4235ft 0kts
11-Aug-18 05:49 40.789075 -111.985536 130 4235ft 0kts
11-Aug-18 05:50 40.789075 -111.985536 130 4235ft 0kts
11-Aug-18 05:51 40.789075 -111.985536 130 4235ft 0kts
11-Aug-18 05:52 40.789075 -111.985536 130 4235ft 0kts
11-Aug-18 05:53 40.789075 -111.985536 130 4235ft 0kts
11-Aug-18 05:54 40.789075 -111.985536 130 4235ft 0kts
11-Aug-18 05:55 40.789075 -111.985536 130 4235ft 0kts
11-Aug-18 05:56 40.789075 -111.985536 130 4235ft 0kts
11-Aug-18 05:57 40.789075 -111.985536 130 4235ft 0kts
11-Aug-18 05:58 40.789075 -111.985536 130 4235ft 0kts
11-Aug-18 05:59 40.789075 -111.985536 130 4235ft 0kts
11-Aug-18 06:00 40.789075 -111.985536 130 4235ft 0kts
11-Aug-18 06:01 40.789075 -111.985536 130 4235ft 0kts
11-Aug-18 06:02 40.789075 -111.985536 130 4235ft 0kts
11-Aug-18 06:03 40.789075 -111.985536 130 4235ft 0kts
11-Aug-18 06:04 40.789075 -111.985536 130 4235ft 0kts
11-Aug-18 06:05 40.789075 -111.985536 130 4235ft 0kts
11-Aug-18 06:06 40.789075 -111.985536 130 4235ft 0kts
11-Aug-18 06:07 40.789075 -111.985536 130 4235ft 0kts
11-Aug-18 06:08 40.789075 -111.985536 130 4235ft 0kts
11-Aug-18 06:09 40.789075 -111.985536 130 4235ft 0kts
11-Aug-18 06:10 40.789075 -111.985536 130 4235ft 0kts
11-Aug-18 06:11 40.789075 -111.985536 130 4235ft 0kts
11-Aug-18 06:12 40.789075 -111.985536 130 4235ft 0kts
11-Aug-18 06:13 40.789075 -111.985536 130 4235ft 0kts
11-Aug-18 06:14 40.789075 -111.985536 130 4235ft 0kts
11-Aug-18 06:15 40.789075 -111.985536 130 4235ft 0kts
11-Aug-18 06:16 40.789075 -111.985536 130 4235ft 0kts
11-Aug-18 06:17 40.789075 -111.985536 130 4235ft 0kts
11-Aug-18 06:18 40.789075 -111.985536 130 4235ft 0kts
11-Aug-18 06:19 40.789075 -111.985536 130 4235ft 0kts
11-Aug-18 06:20 40.789075 -111.985536 130 4235ft 0kts
11-Aug-18 06:21 40.789075 -111.985536 130 4235ft 0kts
11-Aug-18 06:22 40.789075 -111.985536 130 4235ft 0kts
11-Aug-18 06:23 40.789075 -111.985536 130 4235ft 0kts
11-Aug-18 06:24 40.789075 -111.985536 130 4235ft 0kts
11-Aug-18 06:25 40.789075 -111.985536 130 4235ft 0kts
11-Aug-18 06:26 40.789075 -111.985536 130 4235ft 0kts
11-Aug-18 06:27 40.789075 -111.985536 130 4235ft 0kts
11-Aug-18 06:28 40.789075 -111.985536 130 4235ft 0kts
11-Aug-18 06:29 40.789075 -111.985536 130 4235ft 0kts
11-Aug-18 06:30 40.789075 -111.985536 130 4235ft 0kts
11-Aug-18 06:31 40.789075 -111.985536 130 4235ft 0kts
11-Aug-18 06:32 40.789075 -111.985536 130 4235ft 0kts
11-Aug-18 06:33 40.789075 -111.985536 130 4235ft 0kts
11-Aug-18 06:34 40.789075 -111.985536 130 4235ft 0kts
11-Aug-18 06:35 40.789075 -111.985536 130 4235ft 0kts
11-Aug-18 06:36 40.789075 -111.985536 130 4235ft 0kts
11-Aug-18 06:37 40.789075 -111.985536 130 4235ft 0kts
11-Aug-18 06:38 40.789075 -111.985536 130 4235ft 0kts
11-Aug-18 06:39 40.789075 -111.985536 130 4235ft 0kts
11-Aug-18 06:40 40.789075 -111.985536 130 4235ft 0kts
11-Aug-18 06:41 40.789075 -111.985536 130 4235ft 0kts
11-Aug-18 06:42 40.789075 -111.985536 130 4235ft 0kts
11-Aug-18 06:43 40.789075 -111.985536 130 4235ft 0kts
11-Aug-18 06:44 40.789140 -111.985635 131 4235ft 2kts
11-Aug-18 06:45 40.789629 -111.986133 180 4235ft 2kts
11-Aug-18 06:46 40.789898 -111.985774 238 4235ft 0kts
11-Aug-18 06:47 40.789898 -111.985774 238 4235ft 0kts
11-Aug-18 06:48 40.789898 -111.985774 238 4235ft 0kts
11-Aug-18 06:49 40.790171 -111.987234 322 4235ft 14kts
11-Aug-18 06:50 40.791812 -111.993705 279 4235ft 15kts
11-Aug-18 06:51 40.796516 -111.994869 355 4235ft 22kts
11-Aug-18 06:52 40.803059 -111.995484 356 4235ft 23kts
11-Aug-18 06:53 40.807393 -111.996512 323 4235ft 14kts
11-Aug-18 06:54 40.807028 -111.999243 169 4235ft 0kts
11-Aug-18 06:55 40.804686 -111.998896 173 4235ft 65kts
11-Aug-18 06:56 40.763604 -112.000205 198 6169ft 166kts
11-Aug-18 06:57 40.724967 -112.045715 258 7787ft 234kts
11-Aug-18 06:58 40.776124 -112.110618 325 9442ft 302kts
11-Aug-18 06:59 40.845118 -112.183012 320 11529ft 347kts
11-Aug-18 07:00 40.924747 -112.268697 320 13619ft 379kts
11-Aug-18 07:01 41.007706 -112.358516 319 16167ft 391kts
11-Aug-18 07:02 41.094938 -112.447983 327 18525ft 404kts
11-Aug-18 07:03 41.191388 -112.530270 322 20582ft 419kts
11-Aug-18 07:04 41.283696 -112.628803 315 22431ft 431kts
11-Aug-18 07:05 41.365586 -112.747624 311 24072ft 442kts
11-Aug-18 07:06 41.447922 -112.871141 309 25609ft 451kts
11-Aug-18 07:07 41.530858 -112.998704 309 27023ft 459kts
11-Aug-18 07:08 41.615165 -113.128917 309 28295ft 467kts
11-Aug-18 07:09 41.700826 -113.260681 309 29861ft 466kts
11-Aug-18 07:10 41.785246 -113.391497 309 31440ft 464kts
11-Aug-18 07:11 41.869569 -113.522908 309 32132ft 466kts
11-Aug-18 07:12 41.953625 -113.654530 309 32131ft 463kts
11-Aug-18 07:13 42.037393 -113.785811 308 32127ft 464kts
11-Aug-18 07:14 42.121085 -113.918391 308 32125ft 463kts
11-Aug-18 07:15 42.204539 -114.050692 308 32127ft 463kts
11-Aug-18 07:16 42.287916 -114.182749 309 32128ft 464kts
11-Aug-18 07:17 42.371815 -114.316060 308 32129ft 463kts
11-Aug-18 07:18 42.454819 -114.449185 308 32129ft 464kts
11-Aug-18 07:19 42.537909 -114.581563 308 30637ft 456kts
11-Aug-18 07:20 42.618687 -114.710659 307 28525ft 442kts
11-Aug-18 07:21 42.696836 -114.836491 307 26487ft 429kts
11-Aug-18 07:22 42.776512 -114.955601 311 24476ft 420kts
11-Aug-18 07:23 42.856078 -115.069249 310 22492ft 411kts
11-Aug-18 07:24 42.934114 -115.181818 311 20510ft 403kts
11-Aug-18 07:25 43.010387 -115.292336 311 18551ft 396kts
11-Aug-18 07:26 43.085145 -115.401643 311 16587ft 390kts
11-Aug-18 07:27 43.158580 -115.509179 311 14938ft 377kts
11-Aug-18 07:28 43.227175 -115.609743 311 14136ft 348kts
11-Aug-18 07:29 43.287020 -115.710984 297 12781ft 329kts
11-Aug-18 07:30 43.326769 -115.819346 295 11510ft 308kts
11-Aug-18 07:31 43.365140 -115.922398 296 10320ft 302kts
11-Aug-18 07:32 43.402968 -116.024218 296 9331ft 300kts
11-Aug-18 07:33 43.441053 -116.127565 296 8059ft 305kts
11-Aug-18 07:34 43.477356 -116.226841 296 7229ft 269kts
11-Aug-18 07:35 43.509299 -116.315019 296 6395ft 246kts
11-Aug-18 07:36 43.538640 -116.397216 296 5543ft 236kts
11-Aug-18 07:37 43.567664 -116.477665 296 4980ft 229kts
11-Aug-18 07:38 43.615144 -116.499941 39 4989ft 219kts
11-Aug-18 07:39 43.633523 -116.433027 107 4985ft 194kts
11-Aug-18 07:40 43.611943 -116.365593 115 4775ft 178kts
11-Aug-18 07:41 43.592789 -116.309346 114 3923ft 159kts
11-Aug-18 07:42 43.573595 -116.252938 115 3034ft 162kts
11-Aug-18 07:43 43.561709 -116.217262 67 2879ft 23kts
11-Aug-18 07:44 43.564250 -116.217158 1 2879ft 0kts
11-Aug-18 07:45 43.564251 -116.217158 1 2879ft 0kts
11-Aug-18 07:46 43.565850 -116.218516 295 2879ft 12kts
11-Aug-18 07:47 43.566781 -116.219403 22 2879ft 0kts
11-Aug-18 07:48 43.566802 -116.219390 22 2879ft 0kts
11-Aug-18 07:49 43.566802 -116.219390 22 2879ft 0kts
11-Aug-18 07:50 43.566802 -116.219390 22 2879ft 0kts
11-Aug-18 07:51 43.566802 -116.219390 22 2879ft 0kts
11-Aug-18 07:52 43.566802 -116.219390 22 2879ft 0kts
11-Aug-18 07:53 43.566802 -116.219390 22 2879ft 0kts
11-Aug-18 07:54 43.566802 -116.219390 22 2879ft 0kts
11-Aug-18 07:55 43.566802 -116.219390 22 2879ft 0kts

Navigation Log

Ident Type
Flight plan parsing failed, navigation log unavailable